sensor_id;sensor_type;location;lat;lon;timestamp;P1;durP1;ratioP1;P2;durP2;ratioP2
25952;SDS011;13750;50.804;8.764;2022-12-24T00:01:59;1.93;;;0.87;;
25952;SDS011;13750;50.804;8.764;2022-12-24T00:04:27;2.33;;;0.85;;
25952;SDS011;13750;50.804;8.764;2022-12-24T00:06:52;0.70;;;0.50;;
25952;SDS011;13750;50.804;8.764;2022-12-24T00:09:18;1.70;;;0.60;;
25952;SDS011;13750;50.804;8.764;2022-12-24T00:11:43;2.10;;;0.93;;
25952;SDS011;13750;50.804;8.764;2022-12-24T00:14:09;2.00;;;0.70;;
25952;SDS011;13750;50.804;8.764;2022-12-24T00:16:35;1.60;;;0.80;;
25952;SDS011;13750;50.804;8.764;2022-12-24T00:19:00;2.23;;;0.77;;
25952;SDS011;13750;50.804;8.764;2022-12-24T00:21:26;2.90;;;0.60;;
25952;SDS011;13750;50.804;8.764;2022-12-24T00:23:51;0.70;;;0.53;;
25952;SDS011;13750;50.804;8.764;2022-12-24T00:26:17;1.53;;;0.80;;
25952;SDS011;13750;50.804;8.764;2022-12-24T00:28:43;2.23;;;0.80;;
25952;SDS011;13750;50.804;8.764;2022-12-24T00:31:09;1.60;;;0.67;;
25952;SDS011;13750;50.804;8.764;2022-12-24T00:33:38;1.42;;;0.50;;
25952;SDS011;13750;50.804;8.764;2022-12-24T00:36:04;2.35;;;0.60;;
25952;SDS011;13750;50.804;8.764;2022-12-24T00:38:30;1.10;;;0.50;;
25952;SDS011;13750;50.804;8.764;2022-12-24T00:40:59;1.30;;;0.50;;
25952;SDS011;13750;50.804;8.764;2022-12-24T00:43:26;3.13;;;0.80;;
25952;SDS011;13750;50.804;8.764;2022-12-24T00:45:52;0.50;;;0.40;;
25952;SDS011;13750;50.804;8.764;2022-12-24T00:48:18;2.20;;;0.90;;
25952;SDS011;13750;50.804;8.764;2022-12-24T00:50:43;2.23;;;0.90;;
25952;SDS011;13750;50.804;8.764;2022-12-24T00:53:09;1.10;;;0.63;;
25952;SDS011;13750;50.804;8.764;2022-12-24T00:55:35;1.00;;;0.50;;
25952;SDS011;13750;50.804;8.764;2022-12-24T00:58:00;0.63;;;0.40;;
25952;SDS011;13750;50.804;8.764;2022-12-24T01:00:26;1.90;;;0.90;;
25952;SDS011;13750;50.804;8.764;2022-12-24T01:02:51;2.17;;;0.90;;
25952;SDS011;13750;50.804;8.764;2022-12-24T01:05:17;1.48;;;0.45;;
25952;SDS011;13750;50.804;8.764;2022-12-24T01:07:44;2.63;;;0.80;;
25952;SDS011;13750;50.804;8.764;2022-12-24T01:10:13;1.55;;;0.75;;
25952;SDS011;13750;50.804;8.764;2022-12-24T01:12:42;2.53;;;1.02;;
25952;SDS011;13750;50.804;8.764;2022-12-24T01:15:08;1.88;;;0.80;;
25952;SDS011;13750;50.804;8.764;2022-12-24T01:17:35;0.63;;;0.57;;
25952;SDS011;13750;50.804;8.764;2022-12-24T01:20:01;1.30;;;0.50;;
25952;SDS011;13750;50.804;8.764;2022-12-24T01:22:29;2.03;;;0.60;;
25952;SDS011;13750;50.804;8.764;2022-12-24T01:24:54;1.00;;;0.73;;
25952;SDS011;13750;50.804;8.764;2022-12-24T01:27:20;2.23;;;1.10;;
25952;SDS011;13750;50.804;8.764;2022-12-24T01:29:46;3.37;;;1.10;;
25952;SDS011;13750;50.804;8.764;2022-12-24T01:32:11;2.17;;;0.70;;
25952;SDS011;13750;50.804;8.764;2022-12-24T01:34:39;3.17;;;1.02;;
25952;SDS011;13750;50.804;8.764;2022-12-24T01:37:05;2.13;;;0.80;;
25952;SDS011;13750;50.804;8.764;2022-12-24T01:39:30;3.23;;;1.00;;
25952;SDS011;13750;50.804;8.764;2022-12-24T01:41:56;2.40;;;0.97;;
25952;SDS011;13750;50.804;8.764;2022-12-24T01:44:41;1.10;;;0.60;;
25952;SDS011;13750;50.804;8.764;2022-12-24T01:49:34;1.10;;;0.50;;
25952;SDS011;13750;50.804;8.764;2022-12-24T01:52:06;1.48;;;0.55;;
25952;SDS011;13750;50.804;8.764;2022-12-24T01:54:57;1.80;;;0.50;;
25952;SDS011;13750;50.804;8.764;2022-12-24T01:59:54;1.08;;;0.43;;
25952;SDS011;13750;50.804;8.764;2022-12-24T02:02:22;0.80;;;0.40;;
25952;SDS011;13750;50.804;8.764;2022-12-24T02:04:50;0.95;;;0.50;;
25952;SDS011;13750;50.804;8.764;2022-12-24T02:07:24;0.45;;;0.32;;
25952;SDS011;13750;50.804;8.764;2022-12-24T02:09:52;2.97;;;1.33;;
25952;SDS011;13750;50.804;8.764;2022-12-24T02:12:24;1.67;;;0.73;;
25952;SDS011;13750;50.804;8.764;2022-12-24T02:14:53;1.30;;;0.63;;
25952;SDS011;13750;50.804;8.764;2022-12-24T02:17:28;0.80;;;0.40;;
25952;SDS011;13750;50.804;8.764;2022-12-24T02:31:06;0.82;;;0.50;;
25952;SDS011;13750;50.804;8.764;2022-12-24T02:36:39;0.65;;;0.40;;
25952;SDS011;13750;50.804;8.764;2022-12-24T02:39:11;0.47;;;0.20;;
25952;SDS011;13750;50.804;8.764;2022-12-24T02:41:44;0.50;;;0.30;;
25952;SDS011;13750;50.804;8.764;2022-12-24T02:44:44;0.47;;;0.20;;
25952;SDS011;13750;50.804;8.764;2022-12-24T02:47:14;1.92;;;0.50;;
25952;SDS011;13750;50.804;8.764;2022-12-24T02:49:43;1.55;;;0.35;;
25952;SDS011;13750;50.804;8.764;2022-12-24T02:52:30;1.42;;;0.70;;
25952;SDS011;13750;50.804;8.764;2022-12-24T02:55:01;1.75;;;0.90;;
25952;SDS011;13750;50.804;8.764;2022-12-24T03:07:35;1.10;;;0.50;;
25952;SDS011;13750;50.804;8.764;2022-12-24T03:10:26;1.02;;;0.38;;
25952;SDS011;13750;50.804;8.764;2022-12-24T03:13:00;1.77;;;0.50;;
25952;SDS011;13750;50.804;8.764;2022-12-24T03:15:30;0.63;;;0.32;;
25952;SDS011;13750;50.804;8.764;2022-12-24T03:17:57;0.95;;;0.43;;
25952;SDS011;13750;50.804;8.764;2022-12-24T03:20:27;2.63;;;0.68;;
25952;SDS011;13750;50.804;8.764;2022-12-24T03:23:01;0.85;;;0.40;;
25952;SDS011;13750;50.804;8.764;2022-12-24T03:25:27;1.58;;;0.57;;
25952;SDS011;13750;50.804;8.764;2022-12-24T03:27:54;0.83;;;0.50;;
25952;SDS011;13750;50.804;8.764;2022-12-24T03:30:21;1.50;;;0.50;;
25952;SDS011;13750;50.804;8.764;2022-12-24T03:32:46;0.80;;;0.53;;
25952;SDS011;13750;50.804;8.764;2022-12-24T03:35:12;1.70;;;0.83;;
25952;SDS011;13750;50.804;8.764;2022-12-24T03:37:38;1.10;;;0.90;;
25952;SDS011;13750;50.804;8.764;2022-12-24T03:40:04;2.35;;;0.73;;
25952;SDS011;13750;50.804;8.764;2022-12-24T03:42:30;2.95;;;0.82;;
25952;SDS011;13750;50.804;8.764;2022-12-24T03:44:56;2.30;;;1.03;;
25952;SDS011;13750;50.804;8.764;2022-12-24T03:47:22;1.87;;;0.50;;
25952;SDS011;13750;50.804;8.764;2022-12-24T03:49:47;0.93;;;0.43;;
25952;SDS011;13750;50.804;8.764;2022-12-24T03:52:13;0.43;;;0.37;;
25952;SDS011;13750;50.804;8.764;2022-12-24T03:54:38;0.53;;;0.27;;
25952;SDS011;13750;50.804;8.764;2022-12-24T03:57:04;0.50;;;0.30;;
25952;SDS011;13750;50.804;8.764;2022-12-24T03:59:29;0.87;;;0.43;;
25952;SDS011;13750;50.804;8.764;2022-12-24T04:01:55;0.87;;;0.50;;
25952;SDS011;13750;50.804;8.764;2022-12-24T04:04:20;1.67;;;0.77;;
25952;SDS011;13750;50.804;8.764;2022-12-24T04:06:46;2.63;;;0.80;;
25952;SDS011;13750;50.804;8.764;2022-12-24T04:09:11;0.70;;;0.50;;
25952;SDS011;13750;50.804;8.764;2022-12-24T04:11:37;1.47;;;0.50;;
25952;SDS011;13750;50.804;8.764;2022-12-24T04:14:03;0.83;;;0.43;;
25952;SDS011;13750;50.804;8.764;2022-12-24T04:16:28;0.50;;;0.50;;
25952;SDS011;13750;50.804;8.764;2022-12-24T04:18:54;1.67;;;0.67;;
25952;SDS011;13750;50.804;8.764;2022-12-24T04:21:19;0.40;;;0.40;;
25952;SDS011;13750;50.804;8.764;2022-12-24T04:23:45;0.47;;;0.30;;
25952;SDS011;13750;50.804;8.764;2022-12-24T04:26:12;0.30;;;0.25;;
25952;SDS011;13750;50.804;8.764;2022-12-24T04:28:37;0.67;;;0.67;;
25952;SDS011;13750;50.804;8.764;2022-12-24T04:31:06;0.93;;;0.50;;
25952;SDS011;13750;50.804;8.764;2022-12-24T04:33:36;0.47;;;0.30;;
25952;SDS011;13750;50.804;8.764;2022-12-24T04:36:02;1.60;;;0.40;;
25952;SDS011;13750;50.804;8.764;2022-12-24T04:38:29;0.60;;;0.40;;
25952;SDS011;13750;50.804;8.764;2022-12-24T04:40:59;2.22;;;0.50;;
25952;SDS011;13750;50.804;8.764;2022-12-24T04:43:26;0.57;;;0.40;;
25952;SDS011;13750;50.804;8.764;2022-12-24T04:48:18;0.40;;;0.40;;
25952;SDS011;13750;50.804;8.764;2022-12-24T04:50:44;0.50;;;0.40;;
25952;SDS011;13750;50.804;8.764;2022-12-24T04:53:09;0.60;;;0.37;;
25952;SDS011;13750;50.804;8.764;2022-12-24T04:55:35;1.47;;;0.60;;
25952;SDS011;13750;50.804;8.764;2022-12-24T04:58:00;0.40;;;0.30;;
25952;SDS011;13750;50.804;8.764;2022-12-24T05:00:26;0.40;;;0.40;;
25952;SDS011;13750;50.804;8.764;2022-12-24T05:02:51;0.33;;;0.23;;
25952;SDS011;13750;50.804;8.764;2022-12-24T05:05:17;1.23;;;0.70;;
25952;SDS011;13750;50.804;8.764;2022-12-24T05:07:42;0.93;;;0.30;;
25952;SDS011;13750;50.804;8.764;2022-12-24T05:10:08;1.17;;;0.40;;
25952;SDS011;13750;50.804;8.764;2022-12-24T05:12:35;1.35;;;0.57;;
25952;SDS011;13750;50.804;8.764;2022-12-24T05:15:00;1.33;;;0.60;;
25952;SDS011;13750;50.804;8.764;2022-12-24T05:17:26;1.23;;;0.43;;
25952;SDS011;13750;50.804;8.764;2022-12-24T05:19:51;0.80;;;0.40;;
25952;SDS011;13750;50.804;8.764;2022-12-24T05:22:17;1.20;;;0.60;;
25952;SDS011;13750;50.804;8.764;2022-12-24T05:25:01;1.75;;;0.57;;
25952;SDS011;13750;50.804;8.764;2022-12-24T05:27:45;2.40;;;0.57;;
25952;SDS011;13750;50.804;8.764;2022-12-24T05:30:11;2.23;;;0.70;;
25952;SDS011;13750;50.804;8.764;2022-12-24T05:32:37;1.43;;;0.77;;
25952;SDS011;13750;50.804;8.764;2022-12-24T05:35:02;1.53;;;0.70;;
25952;SDS011;13750;50.804;8.764;2022-12-24T05:37:28;0.87;;;0.53;;
25952;SDS011;13750;50.804;8.764;2022-12-24T05:39:53;1.35;;;0.43;;
25952;SDS011;13750;50.804;8.764;2022-12-24T05:42:19;1.70;;;0.50;;
25952;SDS011;13750;50.804;8.764;2022-12-24T05:44:45;1.67;;;0.60;;
25952;SDS011;13750;50.804;8.764;2022-12-24T05:47:10;1.03;;;0.43;;
25952;SDS011;13750;50.804;8.764;2022-12-24T05:49:36;0.93;;;0.50;;
25952;SDS011;13750;50.804;8.764;2022-12-24T05:52:01;0.70;;;0.40;;
25952;SDS011;13750;50.804;8.764;2022-12-24T05:54:27;0.93;;;0.40;;
25952;SDS011;13750;50.804;8.764;2022-12-24T05:56:53;0.80;;;0.57;;
25952;SDS011;13750;50.804;8.764;2022-12-24T05:59:18;0.80;;;0.50;;
25952;SDS011;13750;50.804;8.764;2022-12-24T06:01:44;0.67;;;0.40;;
25952;SDS011;13750;50.804;8.764;2022-12-24T06:04:11;1.33;;;0.40;;
25952;SDS011;13750;50.804;8.764;2022-12-24T06:06:37;1.03;;;0.40;;
25952;SDS011;13750;50.804;8.764;2022-12-24T06:09:03;0.30;;;0.30;;
25952;SDS011;13750;50.804;8.764;2022-12-24T06:11:28;0.30;;;0.30;;
25952;SDS011;13750;50.804;8.764;2022-12-24T06:13:54;1.13;;;0.50;;
25952;SDS011;13750;50.804;8.764;2022-12-24T06:16:20;1.00;;;0.50;;
25952;SDS011;13750;50.804;8.764;2022-12-24T06:18:47;0.93;;;0.40;;
25952;SDS011;13750;50.804;8.764;2022-12-24T06:21:13;0.43;;;0.40;;
25952;SDS011;13750;50.804;8.764;2022-12-24T06:23:39;2.08;;;0.40;;
25952;SDS011;13750;50.804;8.764;2022-12-24T06:26:07;1.05;;;0.40;;
25952;SDS011;13750;50.804;8.764;2022-12-24T06:31:00;0.63;;;0.40;;
25952;SDS011;13750;50.804;8.764;2022-12-24T06:33:26;0.68;;;0.50;;
25952;SDS011;13750;50.804;8.764;2022-12-24T06:35:52;0.57;;;0.47;;
25952;SDS011;13750;50.804;8.764;2022-12-24T06:38:18;0.60;;;0.40;;
25952;SDS011;13750;50.804;8.764;2022-12-24T06:40:44;1.23;;;0.50;;
25952;SDS011;13750;50.804;8.764;2022-12-24T06:45:36;0.40;;;0.40;;
25952;SDS011;13750;50.804;8.764;2022-12-24T06:48:02;0.40;;;0.37;;
25952;SDS011;13750;50.804;8.764;2022-12-24T06:50:28;0.88;;;0.50;;
25952;SDS011;13750;50.804;8.764;2022-12-24T06:52:54;0.53;;;0.37;;
25952;SDS011;13750;50.804;8.764;2022-12-24T06:55:19;3.50;;;0.80;;
25952;SDS011;13750;50.804;8.764;2022-12-24T06:57:45;1.33;;;0.60;;
25952;SDS011;13750;50.804;8.764;2022-12-24T07:00:11;0.60;;;0.40;;
25952;SDS011;13750;50.804;8.764;2022-12-24T07:02:41;0.68;;;0.43;;
25952;SDS011;13750;50.804;8.764;2022-12-24T07:05:08;0.40;;;0.30;;
25952;SDS011;13750;50.804;8.764;2022-12-24T07:10:03;0.20;;;0.20;;
25952;SDS011;13750;50.804;8.764;2022-12-24T07:12:30;0.75;;;0.35;;
25952;SDS011;13750;50.804;8.764;2022-12-24T07:14:55;0.40;;;0.33;;
25952;SDS011;13750;50.804;8.764;2022-12-24T07:17:21;0.97;;;0.40;;
25952;SDS011;13750;50.804;8.764;2022-12-24T07:19:47;0.40;;;0.40;;
25952;SDS011;13750;50.804;8.764;2022-12-24T07:22:12;0.33;;;0.30;;
25952;SDS011;13750;50.804;8.764;2022-12-24T07:24:38;0.77;;;0.43;;
25952;SDS011;13750;50.804;8.764;2022-12-24T07:27:03;0.70;;;0.30;;
25952;SDS011;13750;50.804;8.764;2022-12-24T07:29:29;0.17;;;0.17;;
25952;SDS011;13750;50.804;8.764;2022-12-24T07:31:54;0.20;;;0.20;;
25952;SDS011;13750;50.804;8.764;2022-12-24T07:34:20;0.23;;;0.23;;
25952;SDS011;13750;50.804;8.764;2022-12-24T07:36:45;0.50;;;0.30;;
25952;SDS011;13750;50.804;8.764;2022-12-24T07:39:11;0.80;;;0.50;;
25952;SDS011;13750;50.804;8.764;2022-12-24T07:41:37;0.65;;;0.30;;
25952;SDS011;13750;50.804;8.764;2022-12-24T07:44:02;0.30;;;0.30;;
25952;SDS011;13750;50.804;8.764;2022-12-24T07:46:28;0.50;;;0.37;;
25952;SDS011;13750;50.804;8.764;2022-12-24T07:48:53;0.40;;;0.32;;
25952;SDS011;13750;50.804;8.764;2022-12-24T07:51:19;0.40;;;0.27;;
25952;SDS011;13750;50.804;8.764;2022-12-24T07:53:44;0.57;;;0.40;;
25952;SDS011;13750;50.804;8.764;2022-12-24T07:56:15;0.22;;;0.22;;
25952;SDS011;13750;50.804;8.764;2022-12-24T07:58:40;0.45;;;0.30;;
25952;SDS011;13750;50.804;8.764;2022-12-24T08:01:06;0.23;;;0.20;;
25952;SDS011;13750;50.804;8.764;2022-12-24T08:03:32;0.30;;;0.20;;
25952;SDS011;13750;50.804;8.764;2022-12-24T08:05:58;0.20;;;0.20;;
25952;SDS011;13750;50.804;8.764;2022-12-24T08:08:24;0.27;;;0.20;;
25952;SDS011;13750;50.804;8.764;2022-12-24T08:10:50;0.47;;;0.30;;
25952;SDS011;13750;50.804;8.764;2022-12-24T08:13:16;0.75;;;0.40;;
25952;SDS011;13750;50.804;8.764;2022-12-24T08:15:41;0.80;;;0.20;;
25952;SDS011;13750;50.804;8.764;2022-12-24T08:18:08;0.90;;;0.40;;
25952;SDS011;13750;50.804;8.764;2022-12-24T08:20:36;0.52;;;0.43;;
25952;SDS011;13750;50.804;8.764;2022-12-24T08:23:02;1.45;;;0.40;;
25952;SDS011;13750;50.804;8.764;2022-12-24T08:25:28;0.73;;;0.30;;
25952;SDS011;13750;50.804;8.764;2022-12-24T08:27:54;0.87;;;0.33;;
25952;SDS011;13750;50.804;8.764;2022-12-24T08:30:19;0.27;;;0.27;;
25952;SDS011;13750;50.804;8.764;2022-12-24T08:32:45;0.60;;;0.30;;
25952;SDS011;13750;50.804;8.764;2022-12-24T08:35:10;0.40;;;0.40;;
25952;SDS011;13750;50.804;8.764;2022-12-24T08:37:36;0.73;;;0.40;;
25952;SDS011;13750;50.804;8.764;2022-12-24T08:40:02;0.47;;;0.43;;
25952;SDS011;13750;50.804;8.764;2022-12-24T08:42:27;0.40;;;0.40;;
25952;SDS011;13750;50.804;8.764;2022-12-24T08:44:53;0.43;;;0.40;;
25952;SDS011;13750;50.804;8.764;2022-12-24T08:47:18;0.47;;;0.33;;
25952;SDS011;13750;50.804;8.764;2022-12-24T08:49:44;0.73;;;0.38;;
25952;SDS011;13750;50.804;8.764;2022-12-24T08:52:09;0.80;;;0.57;;
25952;SDS011;13750;50.804;8.764;2022-12-24T08:54:35;0.70;;;0.50;;
25952;SDS011;13750;50.804;8.764;2022-12-24T08:57:00;1.27;;;0.50;;
25952;SDS011;13750;50.804;8.764;2022-12-24T08:59:26;1.60;;;0.90;;
25952;SDS011;13750;50.804;8.764;2022-12-24T09:01:51;1.10;;;0.70;;
25952;SDS011;13750;50.804;8.764;2022-12-24T09:04:17;0.73;;;0.57;;
25952;SDS011;13750;50.804;8.764;2022-12-24T09:06:42;1.67;;;0.80;;
25952;SDS011;13750;50.804;8.764;2022-12-24T09:09:08;1.50;;;1.10;;
25952;SDS011;13750;50.804;8.764;2022-12-24T09:11:34;1.83;;;0.77;;
25952;SDS011;13750;50.804;8.764;2022-12-24T09:14:00;0.70;;;0.60;;
25952;SDS011;13750;50.804;8.764;2022-12-24T09:16:26;1.40;;;0.70;;
25952;SDS011;13750;50.804;8.764;2022-12-24T09:18:52;2.28;;;1.02;;
25952;SDS011;13750;50.804;8.764;2022-12-24T09:21:17;1.30;;;0.67;;
25952;SDS011;13750;50.804;8.764;2022-12-24T09:23:46;0.88;;;0.70;;
25952;SDS011;13750;50.804;8.764;2022-12-24T09:26:16;0.80;;;0.63;;
25952;SDS011;13750;50.804;8.764;2022-12-24T09:28:43;1.02;;;0.57;;
25952;SDS011;13750;50.804;8.764;2022-12-24T09:31:10;1.48;;;0.90;;
25952;SDS011;13750;50.804;8.764;2022-12-24T09:33:36;1.20;;;0.60;;
25952;SDS011;13750;50.804;8.764;2022-12-24T09:36:03;0.70;;;0.52;;
25952;SDS011;13750;50.804;8.764;2022-12-24T09:38:29;1.23;;;0.55;;
25952;SDS011;13750;50.804;8.764;2022-12-24T09:40:55;0.73;;;0.60;;
25952;SDS011;13750;50.804;8.764;2022-12-24T09:43:23;0.95;;;0.70;;
25952;SDS011;13750;50.804;8.764;2022-12-24T09:46:52;1.50;;;0.85;;
25952;SDS011;13750;50.804;8.764;2022-12-24T09:48:51;1.98;;;1.10;;
25952;SDS011;13750;50.804;8.764;2022-12-24T09:51:27;1.27;;;0.93;;
25952;SDS011;13750;50.804;8.764;2022-12-24T09:54:02;2.05;;;1.00;;
25952;SDS011;13750;50.804;8.764;2022-12-24T09:56:39;1.08;;;0.70;;
25952;SDS011;13750;50.804;8.764;2022-12-24T09:59:16;1.52;;;0.80;;
25952;SDS011;13750;50.804;8.764;2022-12-24T10:01:45;1.42;;;0.60;;
25952;SDS011;13750;50.804;8.764;2022-12-24T10:04:13;1.10;;;0.60;;
25952;SDS011;13750;50.804;8.764;2022-12-24T10:06:48;0.47;;;0.47;;
25952;SDS011;13750;50.804;8.764;2022-12-24T10:11:59;1.63;;;0.88;;
25952;SDS011;13750;50.804;8.764;2022-12-24T10:17:39;1.55;;;0.68;;
25952;SDS011;13750;50.804;8.764;2022-12-24T10:23:25;2.47;;;0.80;;
25952;SDS011;13750;50.804;8.764;2022-12-24T10:29:22;0.90;;;0.60;;
25952;SDS011;13750;50.804;8.764;2022-12-24T10:31:57;0.93;;;0.70;;
25952;SDS011;13750;50.804;8.764;2022-12-24T10:34:37;1.10;;;0.77;;
25952;SDS011;13750;50.804;8.764;2022-12-24T10:37:10;2.63;;;0.80;;
25952;SDS011;13750;50.804;8.764;2022-12-24T10:39:45;1.13;;;0.80;;
25952;SDS011;13750;50.804;8.764;2022-12-24T10:42:11;0.97;;;0.80;;
25952;SDS011;13750;50.804;8.764;2022-12-24T10:44:39;1.38;;;0.65;;
25952;SDS011;13750;50.804;8.764;2022-12-24T10:47:05;1.70;;;0.80;;
25952;SDS011;13750;50.804;8.764;2022-12-24T10:49:36;1.27;;;0.90;;
25952;SDS011;13750;50.804;8.764;2022-12-24T10:52:10;1.55;;;1.02;;
25952;SDS011;13750;50.804;8.764;2022-12-24T10:57:30;0.98;;;0.70;;
25952;SDS011;13750;50.804;8.764;2022-12-24T10:59:56;1.47;;;0.80;;
25952;SDS011;13750;50.804;8.764;2022-12-24T11:04:59;1.17;;;0.70;;
25952;SDS011;13750;50.804;8.764;2022-12-24T11:07:28;1.08;;;0.70;;
25952;SDS011;13750;50.804;8.764;2022-12-24T11:09:59;0.90;;;0.70;;
25952;SDS011;13750;50.804;8.764;2022-12-24T11:12:30;1.23;;;0.80;;
25952;SDS011;13750;50.804;8.764;2022-12-24T11:17:52;2.08;;;0.70;;
25952;SDS011;13750;50.804;8.764;2022-12-24T11:20:30;0.93;;;0.60;;
25952;SDS011;13750;50.804;8.764;2022-12-24T11:22:57;1.35;;;0.55;;
25952;SDS011;13750;50.804;8.764;2022-12-24T11:25:25;1.50;;;0.80;;
25952;SDS011;13750;50.804;8.764;2022-12-24T11:27:53;0.90;;;0.73;;
25952;SDS011;13750;50.804;8.764;2022-12-24T11:30:27;1.38;;;0.70;;
25952;SDS011;13750;50.804;8.764;2022-12-24T11:35:26;1.25;;;0.85;;
25952;SDS011;13750;50.804;8.764;2022-12-24T11:38:14;1.17;;;0.80;;
25952;SDS011;13750;50.804;8.764;2022-12-24T11:40:45;1.52;;;0.82;;
25952;SDS011;13750;50.804;8.764;2022-12-24T11:43:14;1.40;;;0.65;;
25952;SDS011;13750;50.804;8.764;2022-12-24T11:45:48;1.55;;;0.90;;
25952;SDS011;13750;50.804;8.764;2022-12-24T11:48:28;0.85;;;0.75;;
25952;SDS011;13750;50.804;8.764;2022-12-24T11:51:06;1.38;;;0.80;;
25952;SDS011;13750;50.804;8.764;2022-12-24T11:53:47;1.25;;;0.70;;
25952;SDS011;13750;50.804;8.764;2022-12-24T11:56:31;1.35;;;0.93;;
25952;SDS011;13750;50.804;8.764;2022-12-24T11:59:10;1.45;;;0.80;;
25952;SDS011;13750;50.804;8.764;2022-12-24T12:04:21;1.15;;;0.80;;
25952;SDS011;13750;50.804;8.764;2022-12-24T12:06:51;0.90;;;0.70;;
25952;SDS011;13750;50.804;8.764;2022-12-24T12:09:27;1.15;;;0.60;;
25952;SDS011;13750;50.804;8.764;2022-12-24T12:12:26;0.80;;;0.68;;
25952;SDS011;13750;50.804;8.764;2022-12-24T12:15:02;1.05;;;0.60;;
25952;SDS011;13750;50.804;8.764;2022-12-24T12:17:43;1.00;;;0.63;;
25952;SDS011;13750;50.804;8.764;2022-12-24T12:22:59;0.50;;;0.43;;
25952;SDS011;13750;50.804;8.764;2022-12-24T12:25:52;0.60;;;0.50;;
25952;SDS011;13750;50.804;8.764;2022-12-24T12:28:38;1.17;;;0.63;;
25952;SDS011;13750;50.804;8.764;2022-12-24T12:31:37;0.93;;;0.70;;
25952;SDS011;13750;50.804;8.764;2022-12-24T12:34:10;0.50;;;0.50;;
25952;SDS011;13750;50.804;8.764;2022-12-24T12:36:46;1.27;;;0.60;;
25952;SDS011;13750;50.804;8.764;2022-12-24T12:39:18;0.95;;;0.68;;
25952;SDS011;13750;50.804;8.764;2022-12-24T12:47:32;1.15;;;0.77;;
25952;SDS011;13750;50.804;8.764;2022-12-24T12:50:33;1.02;;;0.80;;
25952;SDS011;13750;50.804;8.764;2022-12-24T12:53:28;1.20;;;0.70;;
